sensor_id;sensor_type;location;lat;lon;timestamp;pressure;altitude;pressure_sealevel;temperature;humidity
24666;BME280;29726;53.532;-1.478;2022-12-18T00:01:03;100706.84;;;7.13;100.00
24666;BME280;29726;53.532;-1.478;2022-12-18T00:03:35;100755.91;;;7.44;100.00
24666;BME280;29726;53.532;-1.478;2022-12-18T00:06:01;100743.22;;;7.31;100.00
24666;BME280;29726;53.532;-1.478;2022-12-18T00:08:27;100754.03;;;7.41;100.00
24666;BME280;29726;53.532;-1.478;2022-12-18T00:10:53;100751.78;;;7.36;100.00
24666;BME280;29726;53.532;-1.478;2022-12-18T00:13:19;100754.56;;;7.36;100.00
24666;BME280;29726;53.532;-1.478;2022-12-18T00:15:44;100748.69;;;7.34;100.00
24666;BME280;29726;53.532;-1.478;2022-12-18T00:18:10;100752.56;;;7.37;100.00
24666;BME280;29726;53.532;-1.478;2022-12-18T00:20:39;100750.66;;;7.34;100.00
24666;BME280;29726;53.532;-1.478;2022-12-18T00:23:05;100772.66;;;7.41;100.00
24666;BME280;29726;53.532;-1.478;2022-12-18T00:25:35;100766.91;;;7.35;100.00
24666;BME280;29726;53.532;-1.478;2022-12-18T00:28:02;100765.09;;;7.29;100.00
24666;BME280;29726;53.532;-1.478;2022-12-18T00:30:28;100764.22;;;7.32;100.00
24666;BME280;29726;53.532;-1.478;2022-12-18T00:32:53;100763.00;;;7.33;100.00
24666;BME280;29726;53.532;-1.478;2022-12-18T00:35:19;100766.72;;;7.26;100.00
24666;BME280;29726;53.532;-1.478;2022-12-18T00:37:44;100767.06;;;7.28;100.00
24666;BME280;29726;53.532;-1.478;2022-12-18T00:40:10;100770.63;;;7.29;100.00
24666;BME280;29726;53.532;-1.478;2022-12-18T00:42:35;100773.75;;;7.31;100.00
24666;BME280;29726;53.532;-1.478;2022-12-18T00:45:20;100759.50;;;7.16;100.00
24666;BME280;29726;53.532;-1.478;2022-12-18T00:47:45;100776.97;;;7.29;100.00
24666;BME280;29726;53.532;-1.478;2022-12-18T00:50:11;100791.97;;;7.32;100.00
24666;BME280;29726;53.532;-1.478;2022-12-18T00:52:36;100790.06;;;7.29;100.00
24666;BME280;29726;53.532;-1.478;2022-12-18T00:55:02;100795.19;;;7.30;100.00
24666;BME280;29726;53.532;-1.478;2022-12-18T00:57:27;100795.28;;;7.27;100.00
24666;BME280;29726;53.532;-1.478;2022-12-18T00:59:53;100786.16;;;7.26;100.00
24666;BME280;29726;53.532;-1.478;2022-12-18T01:02:18;100785.06;;;7.24;100.00
24666;BME280;29726;53.532;-1.478;2022-12-18T01:04:43;100786.72;;;7.21;100.00
24666;BME280;29726;53.532;-1.478;2022-12-18T01:07:09;100797.72;;;7.25;100.00
24666;BME280;29726;53.532;-1.478;2022-12-18T01:09:34;100788.72;;;7.21;100.00
24666;BME280;29726;53.532;-1.478;2022-12-18T01:11:59;100780.81;;;7.19;100.00
24666;BME280;29726;53.532;-1.478;2022-12-18T01:14:25;100785.69;;;7.15;100.00
24666;BME280;29726;53.532;-1.478;2022-12-18T01:16:50;100783.00;;;7.12;100.00
24666;BME280;29726;53.532;-1.478;2022-12-18T01:19:16;100783.69;;;7.16;100.00
24666;BME280;29726;53.532;-1.478;2022-12-18T01:21:41;100780.91;;;7.16;100.00
24666;BME280;29726;53.532;-1.478;2022-12-18T01:24:07;100764.19;;;7.03;100.00
24666;BME280;29726;53.532;-1.478;2022-12-18T01:26:32;100784.56;;;7.13;100.00
24666;BME280;29726;53.532;-1.478;2022-12-18T01:28:58;100786.44;;;7.16;100.00
24666;BME280;29726;53.532;-1.478;2022-12-18T01:31:29;100774.41;;;7.06;100.00
24666;BME280;29726;53.532;-1.478;2022-12-18T01:33:55;100762.75;;;6.99;100.00
24666;BME280;29726;53.532;-1.478;2022-12-18T01:36:25;100770.28;;;6.98;100.00
24666;BME280;29726;53.532;-1.478;2022-12-18T01:38:52;100794.22;;;7.08;100.00
24666;BME280;29726;53.532;-1.478;2022-12-18T01:41:21;100798.97;;;7.08;100.00
24666;BME280;29726;53.532;-1.478;2022-12-18T01:43:55;100805.75;;;7.07;100.00
24666;BME280;29726;53.532;-1.478;2022-12-18T01:46:23;100792.28;;;7.05;100.00
24666;BME280;29726;53.532;-1.478;2022-12-18T01:48:53;100789.50;;;7.05;100.00
24666;BME280;29726;53.532;-1.478;2022-12-18T01:51:20;100785.78;;;6.96;100.00
24666;BME280;29726;53.532;-1.478;2022-12-18T01:53:46;100799.16;;;7.01;100.00
24666;BME280;29726;53.532;-1.478;2022-12-18T01:56:15;100797.25;;;6.98;100.00
24666;BME280;29726;53.532;-1.478;2022-12-18T01:59:00;100798.03;;;6.98;100.00
24666;BME280;29726;53.532;-1.478;2022-12-18T02:01:29;100793.69;;;6.97;100.00
24666;BME280;29726;53.532;-1.478;2022-12-18T02:04:21;100789.03;;;6.94;100.00
24666;BME280;29726;53.532;-1.478;2022-12-18T02:06:41;100793.78;;;6.94;100.00
24666;BME280;29726;53.532;-1.478;2022-12-18T02:09:12;100777.31;;;6.87;100.00
24666;BME280;29726;53.532;-1.478;2022-12-18T02:15:05;100782.09;;;6.86;100.00
24666;BME280;29726;53.532;-1.478;2022-12-18T02:17:24;100783.81;;;6.80;100.00
24666;BME280;29726;53.532;-1.478;2022-12-18T02:20:11;100794.84;;;6.84;100.00
24666;BME280;29726;53.532;-1.478;2022-12-18T02:25:40;100789.03;;;6.78;100.00
24666;BME280;29726;53.532;-1.478;2022-12-18T02:28:09;100799.78;;;6.76;100.00
24666;BME280;29726;53.532;-1.478;2022-12-18T02:30:37;100806.53;;;6.75;100.00
24666;BME280;29726;53.532;-1.478;2022-12-18T02:33:06;100805.44;;;6.73;100.00
24666;BME280;29726;53.532;-1.478;2022-12-18T02:35:33;100791.72;;;6.66;100.00
24666;BME280;29726;53.532;-1.478;2022-12-18T02:38:00;100811.75;;;6.73;100.00
24666;BME280;29726;53.532;-1.478;2022-12-18T02:40:28;100805.94;;;6.68;100.00
24666;BME280;29726;53.532;-1.478;2022-12-18T02:42:54;100819.38;;;6.69;100.00
24666;BME280;29726;53.532;-1.478;2022-12-18T02:45:20;100815.06;;;6.68;100.00
24666;BME280;29726;53.532;-1.478;2022-12-18T02:47:48;100802.06;;;6.65;100.00
24666;BME280;29726;53.532;-1.478;2022-12-18T02:50:34;100796.50;;;6.65;100.00
24666;BME280;29726;53.532;-1.478;2022-12-18T02:56:07;100811.25;;;6.62;100.00
24666;BME280;29726;53.532;-1.478;2022-12-18T02:58:58;100813.63;;;6.60;100.00
24666;BME280;29726;53.532;-1.478;2022-12-18T03:01:33;100789.38;;;6.49;100.00
24666;BME280;29726;53.532;-1.478;2022-12-18T03:04:17;100799.09;;;6.56;100.00
24666;BME280;29726;53.532;-1.478;2022-12-18T03:06:49;100797.53;;;6.55;100.00
24666;BME280;29726;53.532;-1.478;2022-12-18T03:09:22;100793.19;;;6.54;100.00
24666;BME280;29726;53.532;-1.478;2022-12-18T03:11:56;100779.59;;;6.44;100.00
24666;BME280;29726;53.532;-1.478;2022-12-18T03:14:43;100772.22;;;6.38;100.00
24666;BME280;29726;53.532;-1.478;2022-12-18T03:17:13;100784.78;;;6.42;100.00
24666;BME280;29726;53.532;-1.478;2022-12-18T03:19:43;100788.25;;;6.46;100.00
24666;BME280;29726;53.532;-1.478;2022-12-18T03:22:11;100798.13;;;6.47;100.00
24666;BME280;29726;53.532;-1.478;2022-12-18T03:24:38;100783.69;;;6.40;100.00
24666;BME280;29726;53.532;-1.478;2022-12-18T03:27:08;100791.19;;;6.39;100.00
24666;BME280;29726;53.532;-1.478;2022-12-18T03:29:38;100783.22;;;6.41;100.00
24666;BME280;29726;53.532;-1.478;2022-12-18T03:32:10;100719.19;;;6.04;100.00
24666;BME280;29726;53.532;-1.478;2022-12-18T03:34:40;100760.97;;;6.29;100.00
24666;BME280;29726;53.532;-1.478;2022-12-18T03:37:06;100752.97;;;6.31;100.00
24666;BME280;29726;53.532;-1.478;2022-12-18T03:39:33;100771.44;;;6.37;100.00
24666;BME280;29726;53.532;-1.478;2022-12-18T03:42:23;100769.09;;;6.36;100.00
24666;BME280;29726;53.532;-1.478;2022-12-18T03:45:04;100779.06;;;6.33;100.00
24666;BME280;29726;53.532;-1.478;2022-12-18T03:47:39;100775.16;;;6.31;100.00
24666;BME280;29726;53.532;-1.478;2022-12-18T03:50:22;100761.31;;;6.31;100.00
24666;BME280;29726;53.532;-1.478;2022-12-18T03:55:56;100726.13;;;6.12;100.00
24666;BME280;29726;53.532;-1.478;2022-12-18T03:58:25;100734.97;;;6.23;100.00
24666;BME280;29726;53.532;-1.478;2022-12-18T04:00:55;100740.06;;;6.24;100.00
24666;BME280;29726;53.532;-1.478;2022-12-18T04:03:23;100726.72;;;6.19;100.00
24666;BME280;29726;53.532;-1.478;2022-12-18T04:05:51;100742.50;;;6.22;100.00
24666;BME280;29726;53.532;-1.478;2022-12-18T04:08:17;100729.59;;;6.16;100.00
24666;BME280;29726;53.532;-1.478;2022-12-18T04:10:44;100714.16;;;6.15;100.00
24666;BME280;29726;53.532;-1.478;2022-12-18T04:13:09;100712.53;;;6.17;100.00
24666;BME280;29726;53.532;-1.478;2022-12-18T04:15:36;100687.78;;;6.10;100.00
24666;BME280;29726;53.532;-1.478;2022-12-18T04:18:02;100684.22;;;6.10;100.00
24666;BME280;29726;53.532;-1.478;2022-12-18T04:20:27;100688.97;;;6.09;100.00
24666;BME280;29726;53.532;-1.478;2022-12-18T04:22:53;100694.06;;;6.11;100.00
24666;BME280;29726;53.532;-1.478;2022-12-18T04:25:18;100633.59;;;5.74;100.00
24666;BME280;29726;53.532;-1.478;2022-12-18T04:27:43;100700.13;;;6.06;100.00
24666;BME280;29726;53.532;-1.478;2022-12-18T04:30:09;100687.16;;;6.03;100.00
24666;BME280;29726;53.532;-1.478;2022-12-18T04:32:35;100643.03;;;5.76;100.00
24666;BME280;29726;53.532;-1.478;2022-12-18T04:35:00;100685.31;;;5.96;100.00
24666;BME280;29726;53.532;-1.478;2022-12-18T04:37:26;100689.56;;;6.01;100.00
24666;BME280;29726;53.532;-1.478;2022-12-18T04:39:51;100677.28;;;6.02;100.00
24666;BME280;29726;53.532;-1.478;2022-12-18T04:42:17;100653.03;;;5.90;100.00
24666;BME280;29726;53.532;-1.478;2022-12-18T04:44:42;100662.41;;;5.96;100.00
24666;BME280;29726;53.532;-1.478;2022-12-18T04:47:07;100653.81;;;5.90;100.00
24666;BME280;29726;53.532;-1.478;2022-12-18T04:49:33;100655.31;;;5.95;100.00
24666;BME280;29726;53.532;-1.478;2022-12-18T04:51:58;100664.81;;;5.94;100.00
24666;BME280;29726;53.532;-1.478;2022-12-18T04:54:23;100668.00;;;5.92;100.00
24666;BME280;29726;53.532;-1.478;2022-12-18T04:56:49;100674.34;;;5.93;100.00
24666;BME280;29726;53.532;-1.478;2022-12-18T04:59:14;100664.47;;;5.92;100.00
24666;BME280;29726;53.532;-1.478;2022-12-18T05:01:40;100670.44;;;5.90;100.00
24666;BME280;29726;53.532;-1.478;2022-12-18T05:04:05;100664.56;;;5.88;100.00
24666;BME280;29726;53.532;-1.478;2022-12-18T05:06:30;100661.00;;;5.88;100.00
24666;BME280;29726;53.532;-1.478;2022-12-18T05:08:56;100648.53;;;5.80;100.00
24666;BME280;29726;53.532;-1.478;2022-12-18T05:11:21;100645.44;;;5.74;100.00
24666;BME280;29726;53.532;-1.478;2022-12-18T05:13:47;100629.63;;;5.75;100.00
24666;BME280;29726;53.532;-1.478;2022-12-18T05:16:13;100626.41;;;5.76;100.00
24666;BME280;29726;53.532;-1.478;2022-12-18T05:18:39;100618.56;;;5.75;100.00
24666;BME280;29726;53.532;-1.478;2022-12-18T05:21:05;100600.38;;;5.74;100.00
24666;BME280;29726;53.532;-1.478;2022-12-18T05:23:30;100612.94;;;5.78;100.00
24666;BME280;29726;53.532;-1.478;2022-12-18T05:25:58;100622.03;;;5.79;100.00
24666;BME280;29726;53.532;-1.478;2022-12-18T05:28:25;100624.44;;;5.77;100.00
24666;BME280;29726;53.532;-1.478;2022-12-18T05:30:52;100603.75;;;5.65;100.00
24666;BME280;29726;53.532;-1.478;2022-12-18T05:33:20;100624.50;;;5.73;100.00
24666;BME280;29726;53.532;-1.478;2022-12-18T05:35:54;100625.31;;;5.74;100.00
24666;BME280;29726;53.532;-1.478;2022-12-18T05:38:21;100622.53;;;5.74;100.00
24666;BME280;29726;53.532;-1.478;2022-12-18T05:40:50;100618.63;;;5.71;100.00
24666;BME280;29726;53.532;-1.478;2022-12-18T05:43:16;100619.41;;;5.72;100.00
24666;BME280;29726;53.532;-1.478;2022-12-18T05:45:42;100591.88;;;5.65;100.00
24666;BME280;29726;53.532;-1.478;2022-12-18T05:48:08;100606.44;;;5.69;100.00
24666;BME280;29726;53.532;-1.478;2022-12-18T05:50:38;100588.06;;;5.59;100.00
24666;BME280;29726;53.532;-1.478;2022-12-18T05:53:04;100602.59;;;5.63;100.00
24666;BME280;29726;53.532;-1.478;2022-12-18T05:55:33;100622.69;;;5.67;100.00
24666;BME280;29726;53.532;-1.478;2022-12-18T05:57:59;100614.91;;;5.62;100.00
24666;BME280;29726;53.532;-1.478;2022-12-18T06:00:25;100622.00;;;5.63;100.00
24666;BME280;29726;53.532;-1.478;2022-12-18T06:02:50;100614.47;;;5.63;100.00
24666;BME280;29726;53.532;-1.478;2022-12-18T06:05:16;100621.56;;;5.64;100.00
24666;BME280;29726;53.532;-1.478;2022-12-18T06:07:41;100618.53;;;5.59;100.00
24666;BME280;29726;53.532;-1.478;2022-12-18T06:10:07;100630.28;;;5.63;100.00
24666;BME280;29726;53.532;-1.478;2022-12-18T06:12:32;100637.91;;;5.59;100.00
24666;BME280;29726;53.532;-1.478;2022-12-18T06:14:59;100636.78;;;5.56;100.00
24666;BME280;29726;53.532;-1.478;2022-12-18T06:17:29;100632.31;;;5.62;100.00
24666;BME280;29726;53.532;-1.478;2022-12-18T06:19:55;100627.63;;;5.59;100.00
24666;BME280;29726;53.532;-1.478;2022-12-18T06:22:20;100580.84;;;5.29;100.00
24666;BME280;29726;53.532;-1.478;2022-12-18T06:24:46;100615.75;;;5.59;100.00
24666;BME280;29726;53.532;-1.478;2022-12-18T06:27:11;100612.72;;;5.53;100.00
24666;BME280;29726;53.532;-1.478;2022-12-18T06:29:37;100610.75;;;5.54;100.00
24666;BME280;29726;53.532;-1.478;2022-12-18T06:32:02;100613.16;;;5.52;100.00
24666;BME280;29726;53.532;-1.478;2022-12-18T06:34:27;100602.09;;;5.52;100.00
24666;BME280;29726;53.532;-1.478;2022-12-18T06:36:53;100604.06;;;5.51;100.00
24666;BME280;29726;53.532;-1.478;2022-12-18T06:39:18;100560.03;;;5.25;100.00
24666;BME280;29726;53.532;-1.478;2022-12-18T06:41:43;100606.75;;;5.55;100.00
24666;BME280;29726;53.532;-1.478;2022-12-18T06:44:09;100603.91;;;5.58;100.00
24666;BME280;29726;53.532;-1.478;2022-12-18T06:46:35;100602.97;;;5.49;100.00
24666;BME280;29726;53.532;-1.478;2022-12-18T06:49:00;100612.31;;;5.55;100.00
24666;BME280;29726;53.532;-1.478;2022-12-18T06:51:25;100612.66;;;5.57;100.00
24666;BME280;29726;53.532;-1.478;2022-12-18T06:53:51;100624.50;;;5.57;100.00
24666;BME280;29726;53.532;-1.478;2022-12-18T06:56:17;100624.59;;;5.54;100.00
24666;BME280;29726;53.532;-1.478;2022-12-18T06:58:42;100624.94;;;5.56;100.00
24666;BME280;29726;53.532;-1.478;2022-12-18T07:01:10;100631.22;;;5.56;100.00
24666;BME280;29726;53.532;-1.478;2022-12-18T07:03:38;100624.66;;;5.50;100.00
24666;BME280;29726;53.532;-1.478;2022-12-18T07:06:03;100634.09;;;5.53;100.00
24666;BME280;29726;53.532;-1.478;2022-12-18T07:08:30;100625.00;;;5.52;100.00
24666;BME280;29726;53.532;-1.478;2022-12-18T07:10:55;100615.06;;;5.55;100.00
24666;BME280;29726;53.532;-1.478;2022-12-18T07:13:21;100583.38;;;5.40;100.00
24666;BME280;29726;53.532;-1.478;2022-12-18T07:15:46;100590.22;;;5.51;100.00
24666;BME280;29726;53.532;-1.478;2022-12-18T07:18:11;100595.75;;;5.51;100.00
24666;BME280;29726;53.532;-1.478;2022-12-18T07:20:37;100579.31;;;5.44;100.00
24666;BME280;29726;53.532;-1.478;2022-12-18T07:23:03;100581.50;;;5.53;100.00
24666;BME280;29726;53.532;-1.478;2022-12-18T07:25:33;100567.03;;;5.45;100.00
24666;BME280;29726;53.532;-1.478;2022-12-18T07:27:58;100574.06;;;5.50;100.00
24666;BME280;29726;53.532;-1.478;2022-12-18T07:30:23;100581.16;;;5.51;100.00
24666;BME280;29726;53.532;-1.478;2022-12-18T07:32:49;100572.91;;;5.47;100.00
24666;BME280;29726;53.532;-1.478;2022-12-18T07:35:14;100571.09;;;5.41;100.00
24666;BME280;29726;53.532;-1.478;2022-12-18T07:37:39;100586.75;;;5.47;100.00
24666;BME280;29726;53.532;-1.478;2022-12-18T07:40:05;100581.69;;;5.46;100.00
24666;BME280;29726;53.532;-1.478;2022-12-18T07:42:31;100568.59;;;5.46;100.00
24666;BME280;29726;53.532;-1.478;2022-12-18T07:44:57;100577.25;;;5.48;100.00
24666;BME280;29726;53.532;-1.478;2022-12-18T07:47:22;100565.06;;;5.46;100.00
24666;BME280;29726;53.532;-1.478;2022-12-18T07:49:48;100559.16;;;5.44;100.00
24666;BME280;29726;53.532;-1.478;2022-12-18T07:52:13;100534.06;;;5.35;100.00
24666;BME280;29726;53.532;-1.478;2022-12-18T07:54:39;100558.81;;;5.42;100.00
24666;BME280;29726;53.532;-1.478;2022-12-18T07:57:06;100569.00;;;5.45;100.00
24666;BME280;29726;53.532;-1.478;2022-12-18T07:59:31;100567.13;;;5.42;100.00
24666;BME280;29726;53.532;-1.478;2022-12-18T08:01:56;100569.13;;;5.41;100.00
24666;BME280;29726;53.532;-1.478;2022-12-18T08:04:22;100560.19;;;5.34;100.00
24666;BME280;29726;53.532;-1.478;2022-12-18T08:06:47;100571.63;;;5.36;100.00
24666;BME280;29726;53.532;-1.478;2022-12-18T08:09:13;100576.97;;;5.43;100.00
24666;BME280;29726;53.532;-1.478;2022-12-18T08:11:38;100566.00;;;5.39;100.00
24666;BME280;29726;53.532;-1.478;2022-12-18T08:14:04;100567.22;;;5.38;100.00
24666;BME280;29726;53.532;-1.478;2022-12-18T08:16:29;100576.22;;;5.42;100.00
24666;BME280;29726;53.532;-1.478;2022-12-18T08:18:55;100583.72;;;5.42;100.00
24666;BME280;29726;53.532;-1.478;2022-12-18T08:21:24;100583.38;;;5.40;100.00
24666;BME280;29726;53.532;-1.478;2022-12-18T08:23:50;100593.25;;;5.41;100.00
24666;BME280;29726;53.532;-1.478;2022-12-18T08:26:17;100589.69;;;5.40;100.00
24666;BME280;29726;53.532;-1.478;2022-12-18T08:28:42;100583.38;;;5.40;100.00
24666;BME280;29726;53.532;-1.478;2022-12-18T08:31:08;100586.66;;;5.35;100.00
24666;BME280;29726;53.532;-1.478;2022-12-18T08:33:35;100577.59;;;5.34;100.00
24666;BME280;29726;53.532;-1.478;2022-12-18T08:36:01;100589.78;;;5.37;100.00
24666;BME280;29726;53.532;-1.478;2022-12-18T08:38:27;100583.91;;;5.35;100.00
24666;BME280;29726;53.532;-1.478;2022-12-18T08:43:25;100562.97;;;5.34;100.00
24666;BME280;29726;53.532;-1.478;2022-12-18T08:46:09;100505.59;;;5.02;100.00
24666;BME280;29726;53.532;-1.478;2022-12-18T08:48:35;100549.13;;;5.34;100.00
24666;BME280;29726;53.532;-1.478;2022-12-18T08:51:00;100524.13;;;5.21;100.00
24666;BME280;29726;53.532;-1.478;2022-12-18T08:53:26;100549.13;;;5.34;100.00
24666;BME280;29726;53.532;-1.478;2022-12-18T08:55:52;100546.28;;;5.37;100.00
24666;BME280;29726;53.532;-1.478;2022-12-18T08:58:19;100527.06;;;5.30;100.00
24666;BME280;29726;53.532;-1.478;2022-12-18T09:00:44;100526.72;;;5.28;100.00
24666;BME280;29726;53.532;-1.478;2022-12-18T09:03:17;100540.81;;;5.34;100.00
24666;BME280;29726;53.532;-1.478;2022-12-18T09:05:43;100514.19;;;5.24;100.00
24666;BME280;29726;53.532;-1.478;2022-12-18T09:08:10;100526.19;;;5.33;100.00
24666;BME280;29726;53.532;-1.478;2022-12-18T09:10:42;100529.75;;;5.34;100.00
24666;BME280;29726;53.532;-1.478;2022-12-18T09:13:10;100512.13;;;5.28;100.00
24666;BME280;29726;53.532;-1.478;2022-12-18T09:15:44;100512.53;;;5.26;100.00
24666;BME280;29726;53.532;-1.478;2022-12-18T09:18:11;100465.75;;;5.00;100.00
24666;BME280;29726;53.532;-1.478;2022-12-18T09:20:37;100501.81;;;5.28;100.00
24666;BME280;29726;53.532;-1.478;2022-12-18T09:23:02;100500.94;;;5.31;100.00
24666;BME280;29726;53.532;-1.478;2022-12-18T09:25:32;100483.56;;;5.31;100.00
24666;BME280;29726;53.532;-1.478;2022-12-18T09:28:16;100470.25;;;5.26;100.00
24666;BME280;29726;53.532;-1.478;2022-12-18T09:30:46;100468.53;;;5.32;100.00
24666;BME280;29726;53.532;-1.478;2022-12-18T09:33:11;100473.72;;;5.30;100.00
24666;BME280;29726;53.532;-1.478;2022-12-18T09:35:39;100481.16;;;5.33;100.00
24666;BME280;29726;53.532;-1.478;2022-12-18T09:38:06;100462.38;;;5.24;100.00
24666;BME280;29726;53.532;-1.478;2022-12-18T09:40:52;100477.16;;;5.34;100.00
24666;BME280;29726;53.532;-1.478;2022-12-18T09:43:25;100475.28;;;5.31;100.00
24666;BME280;29726;53.532;-1.478;2022-12-18T09:45:56;100453.31;;;5.24;100.00
24666;BME280;29726;53.532;-1.478;2022-12-18T09:48:34;100454.34;;;5.30;100.00
24666;BME280;29726;53.532;-1.478;2022-12-18T09:51:14;100433.75;;;5.31;100.00
24666;BME280;29726;53.532;-1.478;2022-12-18T09:53:47;100417.69;;;5.26;100.00
24666;BME280;29726;53.532;-1.478;2022-12-18T09:56:18;100417.50;;;5.33;100.00
24666;BME280;29726;53.532;-1.478;2022-12-18T09:59:03;100359.09;;;4.99;100.00
24666;BME280;29726;53.532;-1.478;2022-12-18T10:01:30;100411.81;;;5.24;100.00
24666;BME280;29726;53.532;-1.478;2022-12-18T10:03:55;100433.31;;;5.32;100.00
24666;BME280;29726;53.532;-1.478;2022-12-18T10:06:32;100441.63;;;5.32;100.00
24666;BME280;29726;53.532;-1.478;2022-12-18T10:14:57;100374.56;;;4.96;100.00
24666;BME280;29726;53.532;-1.478;2022-12-18T10:17:38;100434.53;;;5.31;100.00
24666;BME280;29726;53.532;-1.478;2022-12-18T10:23:28;100427.00;;;5.32;100.00
24666;BME280;29726;53.532;-1.478;2022-12-18T10:26:03;100411.63;;;5.31;100.00
24666;BME280;29726;53.532;-1.478;2022-12-18T10:28:30;100394.22;;;5.30;100.00
24666;BME280;29726;53.532;-1.478;2022-12-18T10:30:56;100384.38;;;5.29;100.00
24666;BME280;29726;53.532;-1.478;2022-12-18T10:33:27;100371.75;;;5.28;100.00
24666;BME280;29726;53.532;-1.478;2022-12-18T10:35:53;100362.34;;;5.26;100.00
24666;BME280;29726;53.532;-1.478;2022-12-18T10:38:24;100361.03;;;5.30;100.00
24666;BME280;29726;53.532;-1.478;2022-12-18T10:41:24;100374.88;;;5.30;100.00
24666;BME280;29726;53.532;-1.478;2022-12-18T10:44:19;100344.28;;;5.21;100.00
24666;BME280;29726;53.532;-1.478;2022-12-18T10:46:51;100348.50;;;5.26;100.00
24666;BME280;29726;53.532;-1.478;2022-12-18T10:49:25;100347.19;;;5.30;100.00
24666;BME280;29726;53.532;-1.478;2022-12-18T10:51:51;100347.19;;;5.30;100.00
24666;BME280;29726;53.532;-1.478;2022-12-18T10:54:30;100316.59;;;5.21;100.00
24666;BME280;29726;53.532;-1.478;2022-12-18T10:57:17;100313.50;;;5.19;100.00
24666;BME280;29726;53.532;-1.478;2022-12-18T10:59:54;100309.94;;;5.19;100.00
24666;BME280;29726;53.532;-1.478;2022-12-18T11:02:40;100319.53;;;5.30;100.00
24666;BME280;29726;53.532;-1.478;2022-12-18T11:05:26;100313.97;;;5.30;100.00
24666;BME280;29726;53.532;-1.478;2022-12-18T11:07:52;100298.78;;;5.22;100.00
24666;BME280;29726;53.532;-1.478;2022-12-18T11:10:21;100305.34;;;5.28;100.00
24666;BME280;29726;53.532;-1.478;2022-12-18T11:12:47;100286.84;;;5.25;100.00
24666;BME280;29726;53.532;-1.478;2022-12-18T11:15:39;100287.09;;;5.31;100.00
24666;BME280;29726;53.532;-1.478;2022-12-18T11:18:34;100282.19;;;5.22;100.00
24666;BME280;29726;53.532;-1.478;2022-12-18T11:21:07;100288.31;;;5.30;100.00
24666;BME280;29726;53.532;-1.478;2022-12-18T11:23:34;100263.25;;;5.21;100.00
24666;BME280;29726;53.532;-1.478;2022-12-18T11:26:02;100287.44;;;5.33;100.00
24666;BME280;29726;53.532;-1.478;2022-12-18T11:28:34;100275.25;;;5.30;100.00
24666;BME280;29726;53.532;-1.478;2022-12-18T11:33:49;100232.38;;;5.22;100.00
24666;BME280;29726;53.532;-1.478;2022-12-18T11:36:17;100227.66;;;5.23;100.00
24666;BME280;29726;53.532;-1.478;2022-12-18T11:38:44;100220.44;;;5.25;100.00
24666;BME280;29726;53.532;-1.478;2022-12-18T11:41:29;100218.69;;;5.31;100.00
24666;BME280;29726;53.532;-1.478;2022-12-18T11:44:25;100204.19;;;5.27;100.00
24666;BME280;29726;53.532;-1.478;2022-12-18T11:47:00;100204.72;;;5.22;100.00
24666;BME280;29726;53.532;-1.478;2022-12-18T11:49:35;100208.06;;;5.30;100.00
24666;BME280;29726;53.532;-1.478;2022-12-18T11:52:22;100217.13;;;5.30;100.00
24666;BME280;29726;53.532;-1.478;2022-12-18T11:54:53;100181.28;;;5.27;100.00
24666;BME280;29726;53.532;-1.478;2022-12-18T12:00:03;100173.41;;;5.25;100.00
24666;BME280;29726;53.532;-1.478;2022-12-18T12:02:56;100180.72;;;5.32;100.00
24666;BME280;29726;53.532;-1.478;2022-12-18T12:08:28;100166.91;;;5.32;100.00
24666;BME280;29726;53.532;-1.478;2022-12-18T12:16:12;100150.63;;;5.34;100.00
24666;BME280;29726;53.532;-1.478;2022-12-18T12:21:40;100119.41;;;5.33;100.00
24666;BME280;29726;53.532;-1.478;2022-12-18T12:29:31;100118.22;;;5.34;100.00
24666;BME280;29726;53.532;-1.478;2022-12-18T12:32:11;100106.69;;;5.36;100.00
24666;BME280;29726;53.532;-1.478;2022-12-18T12:38:18;100091.19;;;5.38;100.00
24666;BME280;29726;53.532;-1.478;2022-12-18T12:40:52;100071.94;;;5.35;100.00
24666;BME280;29726;53.532;-1.478;2022-12-18T12:48:31;100060.31;;;5.40;100.00
24666;BME280;29726;53.532;-1.478;2022-12-18T12:51:00;100066.72;;;5.37;100.00
24666;BME280;29726;53.532;-1.478;2022-12-18T12:53:33;100051.00;;;5.34;100.00
24666;BME280;29726;53.532;-1.478;2022-12-18T12:55:59;100051.34;;;5.36;100.00
24666;BME280;29726;53.532;-1.478;2022-12-18T12:58:36;100037.19;;;5.34;100.00
24666;BME280;29726;53.532;-1.478;2022-12-18T13:04:01;100042.38;;;5.44;100.00
24666;BME280;29726;53.532;-1.478;2022-12-18T13:07:00;100035.84;;;5.38;100.00
24666;BME280;29726;53.532;-1.478;2022-12-18T13:09:32;100030.00;;;5.36;100.00
24666;BME280;29726;53.532;-1.478;2022-12-18T13:12:11;100034.19;;;5.41;100.00
24666;BME280;29726;53.532;-1.478;2022-12-18T13:15:12;100032.41;;;5.47;100.00
24666;BME280;29726;53.532;-1.478;2022-12-18T13:17:43;100019.44;;;5.44;100.00
24666;BME280;29726;53.532;-1.478;2022-12-18T13:20:11;100016.16;;;5.49;100.00
24666;BME280;29726;53.532;-1.478;2022-12-18T13:22:47;99999.00;;;5.41;100.00
24666;BME280;29726;53.532;-1.478;2022-12-18T13:25:35;99994.00;;;5.49;100.00
24666;BME280;29726;53.532;-1.478;2022-12-18T13:38:33;99959.09;;;5.51;100.00
24666;BME280;29726;53.532;-1.478;2022-12-18T13:41:04;99959.91;;;5.52;100.00
24666;BME280;29726;53.532;-1.478;2022-12-18T13:43:48;99942.50;;;5.51;100.00
24666;BME280;29726;53.532;-1.478;2022-12-18T13:46:46;99917.59;;;5.51;100.00
24666;BME280;29726;53.532;-1.478;2022-12-18T13:49:35;99917.91;;;5.53;100.00
24666;BME280;29726;53.532;-1.478;2022-12-18T13:52:03;99907.63;;;5.54;100.00
24666;BME280;29726;53.532;-1.478;2022-12-18T13:54:42;99899.31;;;5.54;100.00
24666;BME280;29726;53.532;-1.478;2022-12-18T13:57:29;99902.84;;;5.54;100.00
24666;BME280;29726;53.532;-1.478;2022-12-18T13:59:56;99886.38;;;5.51;100.00
24666;BME280;29726;53.532;-1.478;2022-12-18T14:02:27;99898.09;;;5.55;100.00